Aviation Digital Data Service (ADDS)

Output produced by TAFs form (0015 UTC 17 December 2017)
found at http://www.aviationweather.gov/adds/tafs/
 
KTUS 162320Z 1700/1724 19012G18KT P6SM FEW150 OVC200 
     FM170200 14010KT P6SM OVC150 
     FM170900 13011KT P6SM VCSH OVC080 
     FM171200 14011KT P6SM -SHRA SCT040 OVC060